createdAt,value
2022-10-19T00:01:37.543Z,76.50
2022-10-19T00:04:10.406Z,76.50
2022-10-19T00:06:39.132Z,76.40
2022-10-19T00:09:21.389Z,76.50
2022-10-19T00:11:55.698Z,76.40
2022-10-19T00:14:27.648Z,76.50
2022-10-19T00:17:02.518Z,76.50
2022-10-19T00:19:33.390Z,76.60
2022-10-19T00:22:03.149Z,76.70
2022-10-19T00:24:31.042Z,76.70
2022-10-19T00:27:04.280Z,76.60
2022-10-19T00:29:36.026Z,76.60
2022-10-19T00:32:04.984Z,76.70
2022-10-19T00:34:33.365Z,76.80
2022-10-19T00:37:03.914Z,76.90
2022-10-19T00:39:34.318Z,76.90
2022-10-19T00:42:02.594Z,77.00
2022-10-19T00:44:30.768Z,77.20
2022-10-19T00:47:10.265Z,77.40
2022-10-19T00:49:43.700Z,77.70
2022-10-19T00:52:15.465Z,77.70
2022-10-19T00:54:45.447Z,77.70
2022-10-19T00:57:16.921Z,77.50
2022-10-19T00:59:49.002Z,77.50
2022-10-19T01:02:20.845Z,77.60
2022-10-19T01:04:55.334Z,77.50
2022-10-19T01:07:51.848Z,77.50
2022-10-19T01:10:19.345Z,77.60
2022-10-19T01:13:00.821Z,77.60
2022-10-19T01:15:50.507Z,77.50
2022-10-19T01:19:12.643Z,77.50
2022-10-19T01:21:49.382Z,77.50
2022-10-19T01:24:51.661Z,77.50
2022-10-19T01:27:39.775Z,77.50
2022-10-19T01:30:29.386Z,77.50
2022-10-19T01:33:13.124Z,77.50
2022-10-19T01:36:08.317Z,77.60
2022-10-19T01:39:00.971Z,77.50
2022-10-19T01:42:02.782Z,77.30
2022-10-19T01:44:43.468Z,77.40
2022-10-19T01:47:21.824Z,77.40
2022-10-19T01:50:02.210Z,77.40
2022-10-19T01:52:32.545Z,77.40
2022-10-19T01:55:03.379Z,77.30
2022-10-19T01:57:36.585Z,77.10
2022-10-19T02:00:10.056Z,77.10
2022-10-19T02:02:50.275Z,77.20
2022-10-19T02:05:22.503Z,77.10
2022-10-19T02:07:55.809Z,77.10
2022-10-19T02:10:25.994Z,77.00
2022-10-19T02:12:58.380Z,77.10
2022-10-19T02:15:30.392Z,77.20
2022-10-19T02:18:03.010Z,77.10
2022-10-19T02:20:33.899Z,77.20
2022-10-19T02:23:07.483Z,77.20
2022-10-19T02:25:35.757Z,77.20
2022-10-19T02:28:10.762Z,77.30
2022-10-19T02:30:39.189Z,77.30
2022-10-19T02:33:08.600Z,77.30
2022-10-19T02:35:37.220Z,77.30
2022-10-19T02:38:10.747Z,77.40
2022-10-19T02:40:46.659Z,77.30
2022-10-19T02:43:26.127Z,77.30
2022-10-19T02:46:26.439Z,77.30
2022-10-19T02:49:01.987Z,77.40
2022-10-19T02:51:36.064Z,77.70
2022-10-19T02:54:06.347Z,77.60
2022-10-19T02:56:39.534Z,77.50
2022-10-19T02:59:09.827Z,77.60
2022-10-19T03:01:37.715Z,77.60
2022-10-19T03:04:06.189Z,77.50
2022-10-19T03:06:37.047Z,77.50
2022-10-19T03:09:05.076Z,77.40
2022-10-19T03:11:35.968Z,77.30
2022-10-19T03:14:04.509Z,77.30
2022-10-19T03:16:33.067Z,77.40
2022-10-19T03:19:02.017Z,77.40
2022-10-19T03:21:35.417Z,77.60
2022-10-19T03:24:03.966Z,77.70
2022-10-19T03:26:32.895Z,77.80
2022-10-19T03:29:03.777Z,77.90
2022-10-19T03:31:31.800Z,78.00
2022-10-19T03:34:05.999Z,77.90
2022-10-19T03:36:36.592Z,77.80
2022-10-19T03:39:17.211Z,77.80
2022-10-19T03:41:45.861Z,77.80
2022-10-19T03:44:14.721Z,77.80
2022-10-19T03:46:46.146Z,77.70
2022-10-19T03:49:18.185Z,77.80
2022-10-19T03:51:46.446Z,77.80
2022-10-19T03:54:25.018Z,77.70
2022-10-19T03:56:55.908Z,77.90
2022-10-19T03:59:26.920Z,78.00
2022-10-19T04:01:54.401Z,77.90
2022-10-19T04:04:24.311Z,77.80
2022-10-19T04:06:54.603Z,77.80
2022-10-19T04:09:24.829Z,77.80
2022-10-19T04:11:55.384Z,77.90
2022-10-19T04:14:33.059Z,77.90
2022-10-19T04:17:07.792Z,77.90
2022-10-19T04:22:30.020Z,77.80
2022-10-19T04:25:02.622Z,77.80
2022-10-19T04:27:58.617Z,77.90
2022-10-19T04:30:31.737Z,78.00
2022-10-19T04:33:02.251Z,77.90
2022-10-19T04:35:31.847Z,77.90
2022-10-19T04:37:59.917Z,78.10
2022-10-19T04:40:37.366Z,78.10
2022-10-19T04:43:08.651Z,78.20
2022-10-19T04:45:36.434Z,78.20
2022-10-19T04:48:04.038Z,78.30
2022-10-19T04:50:31.524Z,78.30
2022-10-19T04:52:59.277Z,78.30
2022-10-19T04:55:26.771Z,78.40
2022-10-19T04:57:54.227Z,78.40
2022-10-19T05:00:22.036Z,78.40
2022-10-19T05:02:49.687Z,78.50
2022-10-19T05:05:29.567Z,78.50
2022-10-19T05:07:56.410Z,78.60
2022-10-19T05:10:23.208Z,78.60
2022-10-19T05:12:50.032Z,78.60
2022-10-19T05:15:16.920Z,78.60
2022-10-19T05:17:43.701Z,78.60
2022-10-19T05:20:13.688Z,78.50
2022-10-19T05:22:40.523Z,78.60
2022-10-19T05:25:08.275Z,78.60
2022-10-19T05:27:35.289Z,78.60
2022-10-19T05:30:02.268Z,78.60
2022-10-19T05:32:29.143Z,78.60
2022-10-19T05:34:56.005Z,78.60
2022-10-19T05:37:23.263Z,78.60
2022-10-19T05:39:50.265Z,78.50
2022-10-19T05:42:17.120Z,78.60
2022-10-19T05:44:43.902Z,78.50
2022-10-19T05:47:10.666Z,78.60
2022-10-19T05:49:37.451Z,78.60
2022-10-19T05:52:04.420Z,78.70
2022-10-19T05:54:31.273Z,78.70
2022-10-19T05:56:58.158Z,78.70
2022-10-19T05:59:25.009Z,78.80
2022-10-19T06:01:51.791Z,78.80
2022-10-19T06:04:19.142Z,78.90
2022-10-19T06:06:46.079Z,78.90
2022-10-19T06:09:13.320Z,78.90
2022-10-19T06:11:42.183Z,78.80
2022-10-19T06:14:13.991Z,78.70
2022-10-19T06:16:41.693Z,78.70
2022-10-19T06:19:08.436Z,78.80
2022-10-19T06:21:35.855Z,78.80
2022-10-19T06:24:05.268Z,79.00
2022-10-19T06:26:33.838Z,79.00
2022-10-19T06:29:02.000Z,79.10
2022-10-19T06:31:30.840Z,79.00
2022-10-19T06:33:57.919Z,78.90
2022-10-19T06:36:28.983Z,78.90
2022-10-19T06:38:56.711Z,78.90
2022-10-19T06:41:23.904Z,79.00
2022-10-19T06:43:52.196Z,79.10
2022-10-19T06:46:22.054Z,79.20
2022-10-19T06:48:53.741Z,79.30
2022-10-19T06:51:26.112Z,79.30
2022-10-19T06:53:56.688Z,79.40
2022-10-19T06:56:25.208Z,79.40
2022-10-19T06:58:52.850Z,79.50
2022-10-19T07:01:20.304Z,79.70
2022-10-19T07:03:47.609Z,79.60
2022-10-19T07:06:16.175Z,79.70
2022-10-19T07:08:43.570Z,79.80
2022-10-19T07:11:18.360Z,79.70
2022-10-19T07:13:45.454Z,79.70
2022-10-19T07:16:17.966Z,79.80
2022-10-19T07:18:47.898Z,79.90
2022-10-19T07:21:16.120Z,79.80
2022-10-19T07:23:44.715Z,79.80
2022-10-19T07:26:17.550Z,79.50
2022-10-19T07:28:46.510Z,79.40
2022-10-19T07:31:20.567Z,79.10
2022-10-19T07:33:51.651Z,79.00
2022-10-19T07:36:18.561Z,79.10
2022-10-19T07:38:45.421Z,79.10
2022-10-19T07:41:14.468Z,79.20
2022-10-19T07:43:42.967Z,79.20
2022-10-19T07:46:16.345Z,79.40
2022-10-19T07:48:44.260Z,79.60
2022-10-19T07:51:13.439Z,79.50
2022-10-19T07:53:41.093Z,79.50
2022-10-19T07:56:09.377Z,79.30
2022-10-19T07:58:37.538Z,79.10
2022-10-19T08:01:12.830Z,79.10
2022-10-19T08:04:42.693Z,78.90
2022-10-19T08:06:28.377Z,78.90
2022-10-19T08:08:56.075Z,78.40
2022-10-19T08:11:29.270Z,78.50
2022-10-19T08:13:58.561Z,78.40
2022-10-19T08:16:32.873Z,78.40
2022-10-19T08:19:09.951Z,78.10
2022-10-19T08:21:38.401Z,78.10
2022-10-19T08:24:06.225Z,78.10
2022-10-19T08:26:36.543Z,77.80
2022-10-19T08:29:05.986Z,77.70
2022-10-19T08:31:32.996Z,77.50
2022-10-19T08:34:00.125Z,77.40
2022-10-19T08:36:27.611Z,77.30
2022-10-19T08:38:54.391Z,77.40
2022-10-19T08:41:51.565Z,77.40
2022-10-19T08:44:37.235Z,77.40
2022-10-19T08:47:29.246Z,77.20
2022-10-19T08:49:57.356Z,77.00
2022-10-19T08:52:34.249Z,76.40
2022-10-19T08:55:06.043Z,75.80
2022-10-19T08:58:19.419Z,75.60
2022-10-19T09:00:54.481Z,75.60
2022-10-19T09:03:54.362Z,75.40
2022-10-19T09:06:34.839Z,75.10
2022-10-19T09:09:01.823Z,74.40
2022-10-19T09:11:34.251Z,74.50
2022-10-19T09:14:25.935Z,74.50
2022-10-19T09:16:54.599Z,74.20
2022-10-19T09:19:30.921Z,73.80
2022-10-19T09:22:18.349Z,73.60
2022-10-19T09:24:54.285Z,73.20
2022-10-19T09:27:38.785Z,72.70
2022-10-19T09:30:15.168Z,73.10
2022-10-19T09:32:42.613Z,72.90
2022-10-19T09:35:37.653Z,72.80
2022-10-19T09:38:07.102Z,72.60
2022-10-19T09:40:35.487Z,72.10
2022-10-19T09:43:19.704Z,71.30
2022-10-19T09:45:53.819Z,71.30
2022-10-19T09:48:41.627Z,71.70
2022-10-19T09:51:13.579Z,71.20
2022-10-19T09:54:00.607Z,71.20
2022-10-19T09:56:28.446Z,69.90
2022-10-19T09:58:58.888Z,69.10
2022-10-19T10:01:41.681Z,68.30
2022-10-19T10:04:18.289Z,67.70
2022-10-19T10:06:48.183Z,67.90
2022-10-19T10:09:27.272Z,68.30
2022-10-19T10:11:56.836Z,68.10
2022-10-19T10:14:30.561Z,67.30
2022-10-19T10:17:18.225Z,67.50
2022-10-19T10:20:18.845Z,67.20
2022-10-19T10:22:56.970Z,66.40
2022-10-19T10:25:27.178Z,66.40
2022-10-19T10:27:57.569Z,66.50
2022-10-19T10:30:26.176Z,65.10
2022-10-19T10:32:54.966Z,64.70
2022-10-19T10:35:47.124Z,64.80
2022-10-19T10:38:17.603Z,64.10
2022-10-19T10:41:10.910Z,63.70
2022-10-19T10:43:49.383Z,63.60
2022-10-19T10:46:21.784Z,63.80
2022-10-19T10:49:01.669Z,64.00
2022-10-19T10:51:39.368Z,63.60
2022-10-19T10:54:10.455Z,63.00
2022-10-19T10:56:40.772Z,62.70
2022-10-19T10:59:25.886Z,62.60
2022-10-19T11:02:03.729Z,62.70
2022-10-19T11:04:38.695Z,62.80
2022-10-19T11:07:18.677Z,62.70
2022-10-19T11:10:11.642Z,62.20
2022-10-19T11:12:54.094Z,61.20
2022-10-19T11:15:36.910Z,62.20
2022-10-19T11:18:38.119Z,62.10
2022-10-19T11:21:11.475Z,61.40
2022-10-19T11:24:06.377Z,61.40
2022-10-19T11:27:09.152Z,61.60
2022-10-19T11:29:57.138Z,61.40
2022-10-19T11:32:46.183Z,61.70
2022-10-19T11:35:31.568Z,61.60
2022-10-19T11:38:21.290Z,61.70
2022-10-19T11:43:48.247Z,61.70
2022-10-19T11:46:29.340Z,61.90
2022-10-19T11:49:05.218Z,61.40
2022-10-19T11:51:34.727Z,61.30
2022-10-19T11:54:13.777Z,61.80
2022-10-19T11:57:02.867Z,62.00
2022-10-19T12:00:13.603Z,62.00
2022-10-19T12:03:22.744Z,61.90
2022-10-19T12:06:19.907Z,61.50
2022-10-19T12:09:16.256Z,61.40
2022-10-19T12:11:54.470Z,61.30
2022-10-19T12:14:26.264Z,61.60
2022-10-19T12:17:01.472Z,61.90
2022-10-19T12:19:40.655Z,61.40
2022-10-19T12:22:15.273Z,61.80
2022-10-19T12:24:42.134Z,61.70
2022-10-19T12:27:14.883Z,62.00
2022-10-19T12:29:45.616Z,61.70
2022-10-19T12:32:19.662Z,62.00
2022-10-19T12:34:59.348Z,61.80
2022-10-19T12:37:48.856Z,62.10
2022-10-19T12:40:28.135Z,61.90
2022-10-19T12:43:17.249Z,61.80
2022-10-19T12:46:04.398Z,61.70
2022-10-19T12:48:31.270Z,61.80
2022-10-19T12:51:04.606Z,61.80
2022-10-19T12:53:40.772Z,62.00
2022-10-19T12:56:27.966Z,61.90
2022-10-19T12:58:59.745Z,62.00
2022-10-19T13:01:44.041Z,61.90
2022-10-19T13:04:25.551Z,62.00
2022-10-19T13:07:06.414Z,62.00
2022-10-19T13:09:42.584Z,62.00
2022-10-19T13:12:22.105Z,62.20
2022-10-19T13:14:56.395Z,62.00
2022-10-19T13:17:49.102Z,62.20
2022-10-19T13:20:16.252Z,62.40
2022-10-19T13:22:51.109Z,62.60
2022-10-19T13:25:36.353Z,61.90
2022-10-19T13:28:09.451Z,61.50
2022-10-19T13:30:39.190Z,61.10
2022-10-19T13:33:34.275Z,61.00
2022-10-19T13:36:02.526Z,61.40
2022-10-19T13:38:58.662Z,61.90
2022-10-19T13:41:27.131Z,62.20
2022-10-19T13:44:20.946Z,62.50
2022-10-19T13:50:24.768Z,62.10
2022-10-19T13:53:00.553Z,62.20
2022-10-19T13:55:52.832Z,61.10
2022-10-19T13:58:58.893Z,59.40
2022-10-19T14:02:01.141Z,58.40
2022-10-19T14:04:43.617Z,58.70
2022-10-19T14:07:36.748Z,59.00
2022-10-19T14:10:18.026Z,59.70
2022-10-19T14:12:46.695Z,58.80
2022-10-19T14:15:25.505Z,56.90
2022-10-19T14:17:52.858Z,56.70
2022-10-19T14:20:31.048Z,56.50
2022-10-19T14:23:01.064Z,57.20
2022-10-19T14:25:29.482Z,58.30
2022-10-19T14:28:06.904Z,59.30
2022-10-19T14:30:39.538Z,59.80
2022-10-19T14:33:15.075Z,60.10
2022-10-19T14:35:44.988Z,60.30
2022-10-19T14:38:21.798Z,60.50
2022-10-19T14:40:48.666Z,60.60
2022-10-19T14:43:33.620Z,61.00
2022-10-19T14:46:16.709Z,61.20
2022-10-19T14:48:46.355Z,61.20
2022-10-19T14:51:36.510Z,61.30
2022-10-19T14:54:30.908Z,61.30
2022-10-19T14:57:08.572Z,61.10
2022-10-19T14:59:50.883Z,61.20
2022-10-19T15:02:40.208Z,61.00
2022-10-19T15:05:20.461Z,61.00
2022-10-19T15:07:47.825Z,61.00
2022-10-19T15:10:43.480Z,61.40
2022-10-19T15:13:28.964Z,61.50
2022-10-19T15:15:56.213Z,61.70
2022-10-19T15:18:44.373Z,62.00
2022-10-19T15:21:20.002Z,62.10
2022-10-19T15:23:52.632Z,62.20
2022-10-19T15:26:26.138Z,62.40
2022-10-19T15:28:55.048Z,62.50
2022-10-19T15:31:26.969Z,62.60
2022-10-19T15:33:59.625Z,62.90
2022-10-19T15:36:28.754Z,63.00
2022-10-19T15:39:11.169Z,63.10
2022-10-19T15:41:45.719Z,63.20
2022-10-19T15:44:42.000Z,63.30
2022-10-19T15:47:14.845Z,63.30
2022-10-19T15:49:41.733Z,63.40
2022-10-19T15:52:30.627Z,63.50
2022-10-19T15:54:59.316Z,63.70
2022-10-19T15:57:33.116Z,63.80
2022-10-19T16:00:20.224Z,63.90
2022-10-19T16:02:47.248Z,64.10
2022-10-19T16:05:14.270Z,64.30
2022-10-19T16:07:42.059Z,64.40
2022-10-19T16:10:19.643Z,64.50
2022-10-19T16:12:46.845Z,64.70
2022-10-19T16:15:22.362Z,64.80
2022-10-19T16:18:00.275Z,64.90
2022-10-19T16:20:29.037Z,65.10
2022-10-19T16:23:03.415Z,65.20
2022-10-19T16:25:32.715Z,65.30
2022-10-19T16:27:59.699Z,65.40
2022-10-19T16:30:26.641Z,65.50
2022-10-19T16:32:53.542Z,65.70
2022-10-19T16:35:20.353Z,65.70
2022-10-19T16:37:47.639Z,65.80
2022-10-19T16:40:15.062Z,65.90
2022-10-19T16:42:44.093Z,66.00
2022-10-19T16:45:11.553Z,66.10
2022-10-19T16:47:39.400Z,66.20
2022-10-19T16:50:07.383Z,66.30
2022-10-19T16:52:34.765Z,66.40
2022-10-19T16:55:02.110Z,66.40
2022-10-19T16:57:29.032Z,66.50
2022-10-19T16:59:55.927Z,66.40
2022-10-19T17:02:23.341Z,66.50
2022-10-19T17:04:52.514Z,66.50
2022-10-19T17:07:19.774Z,66.50
2022-10-19T17:09:47.927Z,66.50
2022-10-19T17:12:16.857Z,66.60
2022-10-19T17:14:43.807Z,66.60
2022-10-19T17:17:11.215Z,66.70
2022-10-19T17:19:41.858Z,66.70
2022-10-19T17:22:15.287Z,66.90
2022-10-19T17:24:42.291Z,66.90
2022-10-19T17:27:09.673Z,67.10
2022-10-19T17:29:36.909Z,67.10
2022-10-19T17:32:03.896Z,67.20
2022-10-19T17:34:31.442Z,67.30
2022-10-19T17:36:58.814Z,67.40
2022-10-19T17:39:28.998Z,67.40
2022-10-19T17:42:02.058Z,67.60
2022-10-19T17:44:30.758Z,67.60
2022-10-19T17:46:57.941Z,67.70
2022-10-19T17:49:25.413Z,67.70
2022-10-19T17:51:55.920Z,67.80
2022-10-19T17:54:22.996Z,67.90
2022-10-19T17:56:50.049Z,67.90
2022-10-19T17:59:17.300Z,68.10
2022-10-19T18:01:45.405Z,68.10
2022-10-19T18:04:12.418Z,68.20
2022-10-19T18:06:42.394Z,68.20
2022-10-19T18:09:13.633Z,68.20
2022-10-19T18:11:45.187Z,68.30
2022-10-19T18:14:18.432Z,68.40
2022-10-19T18:16:46.792Z,68.40
2022-10-19T18:19:16.401Z,68.60
2022-10-19T18:21:45.850Z,68.60
2022-10-19T18:24:20.319Z,68.70
2022-10-19T18:26:49.400Z,68.80
2022-10-19T18:29:24.632Z,68.80
2022-10-19T18:31:55.699Z,69.00
2022-10-19T18:34:26.533Z,69.00
2022-10-19T18:36:55.567Z,69.10
2022-10-19T18:39:24.416Z,69.30
2022-10-19T18:41:54.765Z,69.30
2022-10-19T18:44:26.544Z,69.40
2022-10-19T18:46:55.117Z,69.50
2022-10-19T18:49:22.367Z,69.50
2022-10-19T18:51:54.271Z,69.50
2022-10-19T18:54:23.207Z,69.60
2022-10-19T18:56:50.539Z,69.70
2022-10-19T18:59:20.513Z,69.60
2022-10-19T19:01:48.197Z,69.80
2022-10-19T19:04:15.431Z,69.90
2022-10-19T19:06:43.619Z,69.80
2022-10-19T19:09:14.128Z,69.90
2022-10-19T19:11:45.827Z,69.90
2022-10-19T19:14:16.852Z,70.00
2022-10-19T19:16:45.807Z,70.10
2022-10-19T19:19:17.586Z,70.30
2022-10-19T19:21:45.158Z,70.40
2022-10-19T19:24:15.782Z,70.30
2022-10-19T19:26:50.588Z,70.40
2022-10-19T19:29:22.695Z,70.50
2022-10-19T19:31:53.530Z,70.50
2022-10-19T19:34:20.900Z,70.70
2022-10-19T19:36:48.910Z,70.80
2022-10-19T19:39:21.659Z,70.90
2022-10-19T19:41:50.020Z,70.80
2022-10-19T19:44:20.123Z,70.90
2022-10-19T19:46:48.199Z,70.90
2022-10-19T19:49:16.353Z,70.80
2022-10-19T19:51:43.565Z,71.00
2022-10-19T19:54:11.675Z,71.20
2022-10-19T19:56:39.873Z,71.20
2022-10-19T19:59:07.340Z,71.30
2022-10-19T20:01:36.066Z,71.30
2022-10-19T20:04:04.651Z,71.30
2022-10-19T20:06:33.909Z,71.30
2022-10-19T20:09:01.332Z,71.30
2022-10-19T20:11:32.219Z,71.40
2022-10-19T20:14:00.053Z,71.40
2022-10-19T20:16:30.078Z,71.40
2022-10-19T20:19:12.311Z,71.60
2022-10-19T20:21:39.746Z,71.50
2022-10-19T20:24:07.891Z,71.70
2022-10-19T20:26:35.163Z,71.70
2022-10-19T20:29:03.151Z,71.70
2022-10-19T20:31:31.925Z,71.70
2022-10-19T20:33:59.878Z,71.70
2022-10-19T20:36:27.186Z,71.70
2022-10-19T20:38:56.786Z,71.80
2022-10-19T20:41:29.535Z,71.70
2022-10-19T20:43:57.403Z,71.80
2022-10-19T20:46:27.716Z,71.80
2022-10-19T20:48:56.795Z,71.90
2022-10-19T20:51:37.031Z,71.90
2022-10-19T20:54:10.598Z,71.80
2022-10-19T20:56:52.275Z,71.90
2022-10-19T20:59:22.983Z,71.90
2022-10-19T21:01:52.844Z,72.00
2022-10-19T21:04:21.009Z,72.00
2022-10-19T21:06:54.525Z,72.00
2022-10-19T21:09:23.701Z,72.00
2022-10-19T21:11:52.219Z,71.90
2022-10-19T21:14:28.367Z,72.00
2022-10-19T21:16:59.840Z,72.00
2022-10-19T21:19:28.650Z,72.10
2022-10-19T21:22:02.305Z,72.20
2022-10-19T21:24:36.993Z,72.30
2022-10-19T21:27:07.450Z,72.20
2022-10-19T21:29:35.233Z,72.30
2022-10-19T21:32:02.206Z,72.40
2022-10-19T21:34:31.079Z,72.40
2022-10-19T21:36:58.212Z,72.50
2022-10-19T21:39:25.443Z,72.40
2022-10-19T21:41:52.634Z,72.40
2022-10-19T21:44:22.128Z,72.50
2022-10-19T21:46:50.135Z,72.50
2022-10-19T21:49:17.398Z,72.60
2022-10-19T21:51:45.360Z,72.60
2022-10-19T21:54:14.929Z,72.70
2022-10-19T21:56:42.051Z,72.90
2022-10-19T21:59:12.307Z,72.90
2022-10-19T22:01:41.556Z,73.00
2022-10-19T22:04:15.747Z,73.00
2022-10-19T22:06:44.053Z,73.10
2022-10-19T22:09:13.812Z,73.20
2022-10-19T22:11:41.508Z,73.30
2022-10-19T22:14:08.409Z,73.40
2022-10-19T22:16:37.032Z,73.50
2022-10-19T22:19:05.207Z,73.50
2022-10-19T22:21:34.529Z,73.50
2022-10-19T22:24:06.456Z,73.70
2022-10-19T22:26:36.769Z,73.60
2022-10-19T22:29:05.359Z,73.70
2022-10-19T22:31:33.574Z,73.70
2022-10-19T22:34:02.957Z,73.70
2022-10-19T22:36:29.908Z,73.80
2022-10-19T22:38:56.892Z,73.90
2022-10-19T22:42:20.390Z,73.90
2022-10-19T22:44:56.357Z,73.90
2022-10-19T22:47:23.646Z,74.20
2022-10-19T22:49:50.610Z,74.10
2022-10-19T22:52:17.601Z,74.30
2022-10-19T22:54:44.854Z,74.40
2022-10-19T22:57:12.433Z,74.40
2022-10-19T22:59:39.543Z,74.40
